sensor_id;sensor_type;location;lat;lon;timestamp;pressure;altitude;pressure_sealevel;temperature;humidity
74230;BME280;62589;12.568;99.958;2023-05-28T00:01:43;100388.66;;;35.29;45.86
74230;BME280;62589;12.568;99.958;2023-05-28T00:04:09;100398.59;;;35.30;45.51
74230;BME280;62589;12.568;99.958;2023-05-28T00:06:36;100393.03;;;35.30;45.90
74230;BME280;62589;12.568;99.958;2023-05-28T00:09:02;100398.59;;;35.30;45.70
74230;BME280;62589;12.568;99.958;2023-05-28T00:11:29;100393.03;;;35.30;45.64
74230;BME280;62589;12.568;99.958;2023-05-28T00:13:55;100389.81;;;35.31;45.71
74230;BME280;62589;12.568;99.958;2023-05-28T00:16:22;100378.25;;;35.33;45.39
74230;BME280;62589;12.568;99.958;2023-05-28T00:18:48;100377.00;;;35.34;45.03
74230;BME280;62589;12.568;99.958;2023-05-28T00:21:14;100375.47;;;35.33;44.72
74230;BME280;62589;12.568;99.958;2023-05-28T00:23:41;100373.00;;;35.35;44.71
74230;BME280;62589;12.568;99.958;2023-05-28T00:26:07;100381.38;;;35.35;44.60
74230;BME280;62589;12.568;99.958;2023-05-28T00:28:34;100386.16;;;35.38;44.43
74230;BME280;62589;12.568;99.958;2023-05-28T00:31:00;100387.34;;;35.37;44.99
74230;BME280;62589;12.568;99.958;2023-05-28T00:33:28;100397.69;;;35.40;44.30
74230;BME280;62589;12.568;99.958;2023-05-28T00:35:54;100404.06;;;35.40;44.33
74230;BME280;62589;12.568;99.958;2023-05-28T00:38:22;100394.91;;;35.40;44.09
74230;BME280;62589;12.568;99.958;2023-05-28T00:40:48;100410.81;;;35.43;44.33
74230;BME280;62589;12.568;99.958;2023-05-28T00:43:15;100411.22;;;35.45;44.02
74230;BME280;62589;12.568;99.958;2023-05-28T00:45:42;100408.00;;;35.46;43.95
74230;BME280;62589;12.568;99.958;2023-05-28T00:48:09;100404.81;;;35.48;44.48
74230;BME280;62589;12.568;99.958;2023-05-28T00:50:35;100417.16;;;35.47;44.23
74230;BME280;62589;12.568;99.958;2023-05-28T00:53:04;100420.75;;;35.47;44.34
74230;BME280;62589;12.568;99.958;2023-05-28T00:55:31;100429.50;;;35.50;44.54
74230;BME280;62589;12.568;99.958;2023-05-28T00:57:57;100429.09;;;35.51;44.54
74230;BME280;62589;12.568;99.958;2023-05-28T01:00:31;100441.31;;;35.64;44.56
74230;BME280;62589;12.568;99.958;2023-05-28T01:02:58;100448.59;;;35.55;44.51
74230;BME280;62589;12.568;99.958;2023-05-28T01:05:24;100457.75;;;35.55;44.65
74230;BME280;62589;12.568;99.958;2023-05-28T01:07:51;100457.75;;;35.55;44.76
74230;BME280;62589;12.568;99.958;2023-05-28T01:10:18;100446.59;;;35.55;44.72
74230;BME280;62589;12.568;99.958;2023-05-28T01:12:45;100456.19;;;35.54;44.58
74230;BME280;62589;12.568;99.958;2023-05-28T01:15:12;100454.16;;;35.55;44.34
74230;BME280;62589;12.568;99.958;2023-05-28T01:17:38;100454.97;;;35.55;44.54
74230;BME280;62589;12.568;99.958;2023-05-28T01:20:06;100457.75;;;35.55;44.43
74230;BME280;62589;12.568;99.958;2023-05-28T01:22:45;100460.94;;;35.57;43.96
74230;BME280;62589;12.568;99.958;2023-05-28T01:25:13;100472.09;;;35.57;44.16
74230;BME280;62589;12.568;99.958;2023-05-28T01:27:41;100480.09;;;35.55;44.29
74230;BME280;62589;12.568;99.958;2023-05-28T01:30:09;100483.25;;;35.57;43.90
74230;BME280;62589;12.568;99.958;2023-05-28T01:32:36;100489.66;;;35.58;44.13
74230;BME280;62589;12.568;99.958;2023-05-28T01:35:04;100498.03;;;35.58;44.21
74230;BME280;62589;12.568;99.958;2023-05-28T01:37:32;100499.59;;;35.59;43.96
74230;BME280;62589;12.568;99.958;2023-05-28T01:40:00;100493.22;;;35.58;43.92
74230;BME280;62589;12.568;99.958;2023-05-28T01:42:30;100502.81;;;35.57;44.03
74230;BME280;62589;12.568;99.958;2023-05-28T01:44:58;100518.34;;;35.58;43.96
74230;BME280;62589;12.568;99.958;2023-05-28T01:47:26;100526.75;;;35.58;44.47
74230;BME280;62589;12.568;99.958;2023-05-28T01:49:54;100525.94;;;35.58;44.33
74230;BME280;62589;12.568;99.958;2023-05-28T01:52:21;100533.91;;;35.59;44.56
74230;BME280;62589;12.568;99.958;2023-05-28T01:54:47;100543.88;;;35.60;44.69
74230;BME280;62589;12.568;99.958;2023-05-28T01:57:13;100551.03;;;35.61;44.68
74230;BME280;62589;12.568;99.958;2023-05-28T01:59:40;100557.84;;;35.60;44.98
74230;BME280;62589;12.568;99.958;2023-05-28T02:02:07;100562.22;;;35.61;45.02
74230;BME280;62589;12.568;99.958;2023-05-28T02:04:34;100564.22;;;35.61;44.98
74230;BME280;62589;12.568;99.958;2023-05-28T02:07:00;100571.81;;;35.60;45.29
74230;BME280;62589;12.568;99.958;2023-05-28T02:09:27;100572.97;;;35.63;45.13
74230;BME280;62589;12.568;99.958;2023-05-28T02:11:53;100580.94;;;35.64;45.26
74230;BME280;62589;12.568;99.958;2023-05-28T02:14:20;100576.94;;;35.65;45.37
74230;BME280;62589;12.568;99.958;2023-05-28T02:16:47;100583.75;;;35.64;45.38
74230;BME280;62589;12.568;99.958;2023-05-28T02:19:14;100584.13;;;35.66;45.21
74230;BME280;62589;12.568;99.958;2023-05-28T02:21:42;100590.50;;;35.67;45.40
74230;BME280;62589;12.568;99.958;2023-05-28T02:24:08;100584.13;;;35.66;45.46
74230;BME280;62589;12.568;99.958;2023-05-28T02:26:34;100587.31;;;35.68;44.92
74230;BME280;62589;12.568;99.958;2023-05-28T02:29:01;100585.31;;;35.69;45.08
74230;BME280;62589;12.568;99.958;2023-05-28T02:31:27;100587.69;;;35.70;45.39
74230;BME280;62589;12.568;99.958;2023-05-28T02:33:54;100591.28;;;35.71;45.27
74230;BME280;62589;12.568;99.958;2023-05-28T02:36:21;100587.28;;;35.72;45.08
74230;BME280;62589;12.568;99.958;2023-05-28T02:38:48;100588.44;;;35.74;44.90
74230;BME280;62589;12.568;99.958;2023-05-28T02:41:15;100590.00;;;35.75;45.10
74230;BME280;62589;12.568;99.958;2023-05-28T02:43:42;100593.22;;;35.77;45.11
74230;BME280;62589;12.568;99.958;2023-05-28T02:46:09;100591.22;;;35.78;44.74
74230;BME280;62589;12.568;99.958;2023-05-28T02:48:36;100597.59;;;35.78;44.94
74230;BME280;62589;12.568;99.958;2023-05-28T02:51:03;100604.38;;;35.77;44.73
74230;BME280;62589;12.568;99.958;2023-05-28T02:53:30;100607.97;;;35.78;44.67
74230;BME280;62589;12.568;99.958;2023-05-28T02:55:57;100617.53;;;35.80;44.63
74230;BME280;62589;12.568;99.958;2023-05-28T02:58:24;100603.16;;;35.82;44.60
74230;BME280;62589;12.568;99.958;2023-05-28T03:00:50;100613.09;;;35.87;44.90
74230;BME280;62589;12.568;99.958;2023-05-28T03:03:17;100607.09;;;35.88;44.91
74230;BME280;62589;12.568;99.958;2023-05-28T03:05:43;100602.69;;;35.91;44.73
74230;BME280;62589;12.568;99.958;2023-05-28T03:08:10;100603.06;;;35.93;44.55
74230;BME280;62589;12.568;99.958;2023-05-28T03:10:37;100612.63;;;35.95;44.54
74230;BME280;62589;12.568;99.958;2023-05-28T03:13:03;100608.19;;;35.98;44.31
74230;BME280;62589;12.568;99.958;2023-05-28T03:15:29;100606.16;;;36.02;44.27
74230;BME280;62589;12.568;99.958;2023-05-28T03:17:57;100608.53;;;36.03;43.97
74230;BME280;62589;12.568;99.958;2023-05-28T03:20:23;100607.72;;;36.06;44.09
74230;BME280;62589;12.568;99.958;2023-05-28T03:22:55;100612.91;;;36.08;43.97
74230;BME280;62589;12.568;99.958;2023-05-28T03:25:23;100613.66;;;36.12;43.99
74230;BME280;62589;12.568;99.958;2023-05-28T03:27:50;100607.66;;;36.13;44.05
74230;BME280;62589;12.568;99.958;2023-05-28T03:30:17;100601.25;;;36.17;43.70
74230;BME280;62589;12.568;99.958;2023-05-28T03:32:43;100605.19;;;36.19;43.45
74230;BME280;62589;12.568;99.958;2023-05-28T03:35:09;100599.56;;;36.23;43.48
74230;BME280;62589;12.568;99.958;2023-05-28T03:37:36;100599.97;;;36.25;43.47
74230;BME280;62589;12.568;99.958;2023-05-28T03:40:03;100593.97;;;36.26;43.40
74230;BME280;62589;12.568;99.958;2023-05-28T03:42:30;100599.53;;;36.30;43.22
74230;BME280;62589;12.568;99.958;2023-05-28T03:44:56;100591.50;;;36.32;43.33
74230;BME280;62589;12.568;99.958;2023-05-28T03:47:23;100591.88;;;36.34;43.07
74230;BME280;62589;12.568;99.958;2023-05-28T03:49:50;100577.91;;;36.34;43.21
74230;BME280;62589;12.568;99.958;2023-05-28T03:52:17;100581.09;;;36.36;43.23
74230;BME280;62589;12.568;99.958;2023-05-28T03:54:43;100561.09;;;36.37;42.82
74230;BME280;62589;12.568;99.958;2023-05-28T03:57:10;100560.66;;;36.39;42.67
74230;BME280;62589;12.568;99.958;2023-05-28T03:59:36;100550.63;;;36.41;42.81
74230;BME280;62589;12.568;99.958;2023-05-28T04:02:03;100550.22;;;36.43;42.59
74230;BME280;62589;12.568;99.958;2023-05-28T04:04:29;100535.81;;;36.44;42.55
74230;BME280;62589;12.568;99.958;2023-05-28T04:06:56;100535.00;;;36.47;42.50
74230;BME280;62589;12.568;99.958;2023-05-28T04:09:22;100531.38;;;36.51;42.51
74230;BME280;62589;12.568;99.958;2023-05-28T04:11:49;100518.56;;;36.53;42.60
74230;BME280;62589;12.568;99.958;2023-05-28T04:14:16;100515.34;;;36.55;42.56
74230;BME280;62589;12.568;99.958;2023-05-28T04:16:42;100504.53;;;36.57;42.54
74230;BME280;62589;12.568;99.958;2023-05-28T04:19:08;100504.44;;;36.60;42.58
74230;BME280;62589;12.568;99.958;2023-05-28T04:21:35;100493.22;;;36.64;42.24
74230;BME280;62589;12.568;99.958;2023-05-28T04:24:03;100489.59;;;36.67;42.46
74230;BME280;62589;12.568;99.958;2023-05-28T04:26:29;100483.56;;;36.72;42.29
74230;BME280;62589;12.568;99.958;2023-05-28T04:28:55;100481.13;;;36.74;42.26
74230;BME280;62589;12.568;99.958;2023-05-28T04:31:22;100476.28;;;36.78;42.00
74230;BME280;62589;12.568;99.958;2023-05-28T04:33:53;100475.78;;;36.83;42.08
74230;BME280;62589;12.568;99.958;2023-05-28T04:36:20;100478.53;;;36.87;42.00
74230;BME280;62589;12.568;99.958;2023-05-28T04:38:46;100468.44;;;36.93;42.07
74230;BME280;62589;12.568;99.958;2023-05-28T04:41:13;100461.94;;;36.99;42.21
74230;BME280;62589;12.568;99.958;2023-05-28T04:43:41;100457.44;;;37.05;42.25
74230;BME280;62589;12.568;99.958;2023-05-28T04:46:07;100456.91;;;37.14;41.79
74230;BME280;62589;12.568;99.958;2023-05-28T04:48:35;100443.94;;;37.24;41.95
74230;BME280;62589;12.568;99.958;2023-05-28T04:51:03;100437.06;;;37.28;40.95
74230;BME280;62589;12.568;99.958;2023-05-28T04:53:31;100425.34;;;37.37;40.15
74230;BME280;62589;12.568;99.958;2023-05-28T04:56:00;100429.19;;;37.43;40.85
74230;BME280;62589;12.568;99.958;2023-05-28T04:58:26;100416.28;;;37.49;41.03
74230;BME280;62589;12.568;99.958;2023-05-28T05:00:53;100404.97;;;37.56;40.85
74230;BME280;62589;12.568;99.958;2023-05-28T05:03:19;100395.69;;;37.59;40.27
74230;BME280;62589;12.568;99.958;2023-05-28T05:05:46;100392.47;;;37.61;40.32
74230;BME280;62589;12.568;99.958;2023-05-28T05:08:13;100390.41;;;37.65;40.60
74230;BME280;62589;12.568;99.958;2023-05-28T05:10:43;100383.94;;;37.68;39.97
74230;BME280;62589;12.568;99.958;2023-05-28T05:13:09;100373.88;;;37.70;39.98
74230;BME280;62589;12.568;99.958;2023-05-28T05:15:36;100365.47;;;37.70;39.61
74230;BME280;62589;12.568;99.958;2023-05-28T05:18:03;100362.69;;;37.70;40.09
74230;BME280;62589;12.568;99.958;2023-05-28T05:20:29;100359.81;;;37.74;40.48
74230;BME280;62589;12.568;99.958;2023-05-28T05:22:56;100359.81;;;37.74;40.83
74230;BME280;62589;12.568;99.958;2023-05-28T05:25:22;100351.34;;;37.77;40.53
74230;BME280;62589;12.568;99.958;2023-05-28T05:27:49;100338.03;;;37.81;40.58
74230;BME280;62589;12.568;99.958;2023-05-28T05:30:16;100336.47;;;37.80;41.06
74230;BME280;62589;12.568;99.958;2023-05-28T05:32:43;100328.13;;;37.77;40.43
74230;BME280;62589;12.568;99.958;2023-05-28T05:35:10;100325.03;;;37.71;40.43
74230;BME280;62589;12.568;99.958;2023-05-28T05:37:37;100318.72;;;37.67;40.60
74230;BME280;62589;12.568;99.958;2023-05-28T05:40:04;100314.97;;;37.54;40.35
74230;BME280;62589;12.568;99.958;2023-05-28T05:42:31;100309.72;;;37.56;40.50
74230;BME280;62589;12.568;99.958;2023-05-28T05:44:57;100311.97;;;37.65;40.52
74230;BME280;62589;12.568;99.958;2023-05-28T05:47:24;100300.75;;;37.65;39.66
74230;BME280;62589;12.568;99.958;2023-05-28T05:49:51;100291.19;;;37.62;40.46
74230;BME280;62589;12.568;99.958;2023-05-28T05:52:17;100296.66;;;37.69;40.60
74230;BME280;62589;12.568;99.958;2023-05-28T05:54:44;100291.94;;;37.66;40.14
74230;BME280;62589;12.568;99.958;2023-05-28T05:57:11;100294.22;;;37.71;40.49
74230;BME280;62589;12.568;99.958;2023-05-28T05:59:37;100292.94;;;37.76;40.72
74230;BME280;62589;12.568;99.958;2023-05-28T06:02:04;100288.03;;;37.60;39.96
74230;BME280;62589;12.568;99.958;2023-05-28T06:04:30;100280.94;;;37.75;39.59
74230;BME280;62589;12.568;99.958;2023-05-28T06:07:01;100282.22;;;37.71;40.28
74230;BME280;62589;12.568;99.958;2023-05-28T06:09:34;100268.84;;;37.78;40.46
74230;BME280;62589;12.568;99.958;2023-05-28T06:12:00;100274.09;;;37.76;40.08
74230;BME280;62589;12.568;99.958;2023-05-28T06:14:28;100272.38;;;37.82;40.22
74230;BME280;62589;12.568;99.958;2023-05-28T06:16:54;100264.28;;;37.84;39.90
74230;BME280;62589;12.568;99.958;2023-05-28T06:19:22;100269.03;;;37.88;40.53
74230;BME280;62589;12.568;99.958;2023-05-28T06:21:48;100259.75;;;37.91;40.36
74230;BME280;62589;12.568;99.958;2023-05-28T06:24:15;100260.41;;;37.98;39.44
74230;BME280;62589;12.568;99.958;2023-05-28T06:26:41;100258.53;;;38.08;39.51
74230;BME280;62589;12.568;99.958;2023-05-28T06:29:08;100264.09;;;38.11;40.03
74230;BME280;62589;12.568;99.958;2023-05-28T06:31:37;100261.97;;;37.99;39.23
74230;BME280;62589;12.568;99.958;2023-05-28T06:34:03;100261.53;;;38.01;39.32
74230;BME280;62589;12.568;99.958;2023-05-28T06:36:30;100255.94;;;38.01;39.68
74230;BME280;62589;12.568;99.958;2023-05-28T06:38:56;100254.16;;;37.91;39.60
74230;BME280;62589;12.568;99.958;2023-05-28T06:41:23;100252.94;;;37.92;39.80
74230;BME280;62589;12.568;99.958;2023-05-28T06:43:49;100253.28;;;37.94;40.02
74230;BME280;62589;12.568;99.958;2023-05-28T06:46:19;100260.13;;;37.93;39.88
74230;BME280;62589;12.568;99.958;2023-05-28T06:48:48;100255.75;;;37.92;39.70
74230;BME280;62589;12.568;99.958;2023-05-28T06:51:15;100248.72;;;37.83;39.44
74230;BME280;62589;12.568;99.958;2023-05-28T06:53:41;100243.91;;;37.84;39.80
74230;BME280;62589;12.568;99.958;2023-05-28T06:56:08;100238.41;;;37.80;39.51
74230;BME280;62589;12.568;99.958;2023-05-28T06:58:34;100230.94;;;37.74;40.21
74230;BME280;62589;12.568;99.958;2023-05-28T07:01:01;100230.34;;;37.82;39.91
74230;BME280;62589;12.568;99.958;2023-05-28T07:03:29;100221.84;;;37.86;39.63
74230;BME280;62589;12.568;99.958;2023-05-28T07:05:55;100215.28;;;37.76;39.85
74230;BME280;62589;12.568;99.958;2023-05-28T07:08:22;100210.81;;;37.79;40.10
74230;BME280;62589;12.568;99.958;2023-05-28T07:10:48;100210.75;;;37.82;40.15
74230;BME280;62589;12.568;99.958;2023-05-28T07:13:14;100218.44;;;37.78;40.14
74230;BME280;62589;12.568;99.958;2023-05-28T07:15:41;100205.13;;;37.82;39.31
74230;BME280;62589;12.568;99.958;2023-05-28T07:18:07;100201.97;;;37.80;39.79
74230;BME280;62589;12.568;99.958;2023-05-28T07:20:34;100195.03;;;37.69;39.87
74230;BME280;62589;12.568;99.958;2023-05-28T07:23:00;100191.44;;;37.68;39.89
74230;BME280;62589;12.568;99.958;2023-05-28T07:25:27;100195.03;;;37.69;40.60
74230;BME280;62589;12.568;99.958;2023-05-28T07:27:53;100191.78;;;37.70;40.34
74230;BME280;62589;12.568;99.958;2023-05-28T07:30:19;100195.03;;;37.69;39.91
74230;BME280;62589;12.568;99.958;2023-05-28T07:32:46;100191.78;;;37.70;40.00
74230;BME280;62589;12.568;99.958;2023-05-28T07:35:12;100187.09;;;37.64;40.36
74230;BME280;62589;12.568;99.958;2023-05-28T07:37:39;100184.69;;;37.66;39.89
74230;BME280;62589;12.568;99.958;2023-05-28T07:40:06;100176.69;;;37.64;39.99
74230;BME280;62589;12.568;99.958;2023-05-28T07:42:33;100182.91;;;37.56;40.12
74230;BME280;62589;12.568;99.958;2023-05-28T07:44:59;100178.47;;;37.58;40.55
74230;BME280;62589;12.568;99.958;2023-05-28T07:47:26;100171.34;;;37.54;40.90
74230;BME280;62589;12.568;99.958;2023-05-28T07:49:52;100168.47;;;37.57;41.67
74230;BME280;62589;12.568;99.958;2023-05-28T07:52:19;100164.69;;;37.64;41.81
74230;BME280;62589;12.568;99.958;2023-05-28T07:54:45;100159.88;;;37.64;41.62
74230;BME280;62589;12.568;99.958;2023-05-28T07:57:12;100153.59;;;37.60;41.45
74230;BME280;62589;12.568;99.958;2023-05-28T07:59:41;100146.44;;;37.59;41.58
74230;BME280;62589;12.568;99.958;2023-05-28T08:02:07;100147.09;;;37.63;41.52
74230;BME280;62589;12.568;99.958;2023-05-28T08:04:34;100147.84;;;37.67;42.08
74230;BME280;62589;12.568;99.958;2023-05-28T08:07:04;100145.47;;;37.66;41.36
74230;BME280;62589;12.568;99.958;2023-05-28T08:09:30;100137.75;;;37.54;41.63
74230;BME280;62589;12.568;99.958;2023-05-28T08:12:16;100131.09;;;37.64;41.52
74230;BME280;62589;12.568;99.958;2023-05-28T08:14:43;100133.47;;;37.65;41.08
74230;BME280;62589;12.568;99.958;2023-05-28T08:17:09;100141.88;;;37.65;41.13
74230;BME280;62589;12.568;99.958;2023-05-28T08:19:36;100137.00;;;37.69;41.07
74230;BME280;62589;12.568;99.958;2023-05-28T08:22:05;100134.00;;;37.60;41.66
74230;BME280;62589;12.568;99.958;2023-05-28T08:24:32;100141.97;;;37.62;41.83
74230;BME280;62589;12.568;99.958;2023-05-28T08:26:58;100138.38;;;37.61;41.77
74230;BME280;62589;12.568;99.958;2023-05-28T08:29:25;100149.06;;;37.66;41.61
74230;BME280;62589;12.568;99.958;2023-05-28T08:31:51;100149.69;;;37.74;42.09
74230;BME280;62589;12.568;99.958;2023-05-28T08:34:18;100147.09;;;37.63;42.24
74230;BME280;62589;12.568;99.958;2023-05-28T08:36:44;100149.91;;;37.63;41.65
74230;BME280;62589;12.568;99.958;2023-05-28T08:39:11;100148.19;;;37.69;41.39
74230;BME280;62589;12.568;99.958;2023-05-28T08:41:38;100157.09;;;37.64;41.17
74230;BME280;62589;12.568;99.958;2023-05-28T08:44:07;100149.81;;;37.50;41.56
74230;BME280;62589;12.568;99.958;2023-05-28T08:46:35;100151.31;;;37.55;42.04
74230;BME280;62589;12.568;99.958;2023-05-28T08:49:03;100155.69;;;37.56;41.41
74230;BME280;62589;12.568;99.958;2023-05-28T08:51:33;100140.97;;;37.52;41.71
74230;BME280;62589;12.568;99.958;2023-05-28T08:54:02;100140.38;;;37.61;42.46
74230;BME280;62589;12.568;99.958;2023-05-28T08:56:29;100131.00;;;37.51;41.80
74230;BME280;62589;12.568;99.958;2023-05-28T08:58:56;100139.13;;;37.45;42.03
74230;BME280;62589;12.568;99.958;2023-05-28T09:01:23;100129.25;;;37.57;41.96
74230;BME280;62589;12.568;99.958;2023-05-28T09:03:49;100137.81;;;37.50;42.81
74230;BME280;62589;12.568;99.958;2023-05-28T09:06:16;100125.75;;;37.53;42.07
74230;BME280;62589;12.568;99.958;2023-05-28T09:08:46;100126.91;;;37.56;42.25
74230;BME280;62589;12.568;99.958;2023-05-28T09:11:14;100126.09;;;37.39;41.90
74230;BME280;62589;12.568;99.958;2023-05-28T09:13:49;100116.28;;;37.31;42.01
74230;BME280;62589;12.568;99.958;2023-05-28T09:16:20;100105.50;;;37.29;41.99
74230;BME280;62589;12.568;99.958;2023-05-28T09:18:51;100113.91;;;37.29;42.12
74230;BME280;62589;12.568;99.958;2023-05-28T09:21:21;100113.47;;;37.31;42.59
74230;BME280;62589;12.568;99.958;2023-05-28T09:23:51;100110.31;;;37.29;42.38
74230;BME280;62589;12.568;99.958;2023-05-28T09:26:18;100103.81;;;37.15;42.58
74230;BME280;62589;12.568;99.958;2023-05-28T09:28:49;100117.22;;;37.24;42.93
74230;BME280;62589;12.568;99.958;2023-05-28T09:31:18;100115.63;;;37.23;42.60
74230;BME280;62589;12.568;99.958;2023-05-28T09:33:45;100119.94;;;37.28;42.57
74230;BME280;62589;12.568;99.958;2023-05-28T09:36:17;100120.75;;;37.08;42.66
74230;BME280;62589;12.568;99.958;2023-05-28T09:38:43;100118.97;;;36.98;43.42
74230;BME280;62589;12.568;99.958;2023-05-28T09:41:29;100122.81;;;37.04;43.10
74230;BME280;62589;12.568;99.958;2023-05-28T09:44:01;100126.28;;;36.92;43.30
74230;BME280;62589;12.568;99.958;2023-05-28T09:46:29;100134.19;;;36.97;43.08
74230;BME280;62589;12.568;99.958;2023-05-28T09:48:56;100131.75;;;36.99;43.19
74230;BME280;62589;12.568;99.958;2023-05-28T09:51:30;100141.19;;;37.05;43.30
74230;BME280;62589;12.568;99.958;2023-05-28T09:54:02;100140.16;;;36.99;43.52
74230;BME280;62589;12.568;99.958;2023-05-28T09:56:31;100145.53;;;36.90;43.95
74230;BME280;62589;12.568;99.958;2023-05-28T09:59:00;100146.44;;;36.83;44.13
74230;BME280;62589;12.568;99.958;2023-05-28T10:01:32;100156.41;;;36.85;44.45
74230;BME280;62589;12.568;99.958;2023-05-28T10:04:08;100167.41;;;36.75;44.57
74230;BME280;62589;12.568;99.958;2023-05-28T10:06:38;100165.13;;;36.67;44.85
74230;BME280;62589;12.568;99.958;2023-05-28T10:09:07;100174.22;;;36.74;44.71
74230;BME280;62589;12.568;99.958;2023-05-28T10:11:42;100212.63;;;36.70;45.33
74230;BME280;62589;12.568;99.958;2023-05-28T10:14:11;100233.59;;;36.82;44.97
74230;BME280;62589;12.568;99.958;2023-05-28T10:16:37;100247.47;;;36.89;43.59
74230;BME280;62589;12.568;99.958;2023-05-28T10:19:05;100252.19;;;36.92;42.56
74230;BME280;62589;12.568;99.958;2023-05-28T10:21:31;100266.91;;;36.96;42.29
74230;BME280;62589;12.568;99.958;2023-05-28T10:23:58;100276.91;;;36.97;42.46
74230;BME280;62589;12.568;99.958;2023-05-28T10:26:25;100282.50;;;36.97;42.35
74230;BME280;62589;12.568;99.958;2023-05-28T10:28:55;100287.66;;;36.99;42.59
74230;BME280;62589;12.568;99.958;2023-05-28T10:31:23;100290.00;;;37.00;42.97
74230;BME280;62589;12.568;99.958;2023-05-28T10:33:50;100299.13;;;37.04;42.85
74230;BME280;62589;12.568;99.958;2023-05-28T10:36:17;100311.53;;;37.03;42.89
74230;BME280;62589;12.568;99.958;2023-05-28T10:39:03;100312.31;;;37.04;43.29
74230;BME280;62589;12.568;99.958;2023-05-28T10:41:33;100304.44;;;36.99;42.95
74230;BME280;62589;12.568;99.958;2023-05-28T10:44:07;100312.06;;;36.98;43.08
74230;BME280;62589;12.568;99.958;2023-05-28T10:46:37;100301.06;;;37.07;42.68
74230;BME280;62589;12.568;99.958;2023-05-28T10:49:15;100311.81;;;36.89;42.62
74230;BME280;62589;12.568;99.958;2023-05-28T10:52:00;100319.25;;;36.76;41.80
74230;BME280;62589;12.568;99.958;2023-05-28T10:54:45;100306.63;;;36.64;41.58
74230;BME280;62589;12.568;99.958;2023-05-28T10:57:18;100308.50;;;36.47;41.42
74230;BME280;62589;12.568;99.958;2023-05-28T11:00:01;100302.53;;;36.45;41.94
74230;BME280;62589;12.568;99.958;2023-05-28T11:02:36;100298.31;;;36.37;41.61
74230;BME280;62589;12.568;99.958;2023-05-28T11:05:04;100288.97;;;36.17;41.90
74230;BME280;62589;12.568;99.958;2023-05-28T11:07:38;100298.22;;;36.14;41.46
74230;BME280;62589;12.568;99.958;2023-05-28T11:10:11;100286.41;;;36.03;40.43
74230;BME280;62589;12.568;99.958;2023-05-28T11:12:40;100285.19;;;36.04;40.25
74230;BME280;62589;12.568;99.958;2023-05-28T11:15:08;100287.75;;;35.95;40.60
74230;BME280;62589;12.568;99.958;2023-05-28T11:17:42;100286.28;;;35.83;40.73
74230;BME280;62589;12.568;99.958;2023-05-28T11:20:23;100288.22;;;35.90;40.38
74230;BME280;62589;12.568;99.958;2023-05-28T11:22:51;100296.91;;;35.95;40.28
74230;BME280;62589;12.568;99.958;2023-05-28T11:25:19;100296.47;;;35.97;40.43
74230;BME280;62589;12.568;99.958;2023-05-28T11:27:48;100298.41;;;36.00;40.66
74230;BME280;62589;12.568;99.958;2023-05-28T11:30:17;100300.50;;;35.96;41.29
74230;BME280;62589;12.568;99.958;2023-05-28T11:32:46;100308.88;;;35.96;41.79
74230;BME280;62589;12.568;99.958;2023-05-28T11:35:13;100314.94;;;35.91;42.27
74230;BME280;62589;12.568;99.958;2023-05-28T11:37:42;100304.94;;;35.93;41.90
74230;BME280;62589;12.568;99.958;2023-05-28T11:40:13;100316.47;;;35.95;42.14
74230;BME280;62589;12.568;99.958;2023-05-28T11:42:42;100316.41;;;35.99;42.68
74230;BME280;62589;12.568;99.958;2023-05-28T11:45:10;100337.06;;;36.05;42.71
74230;BME280;62589;12.568;99.958;2023-05-28T11:47:37;100340.63;;;36.09;42.70
74230;BME280;62589;12.568;99.958;2023-05-28T11:50:08;100344.19;;;36.09;43.14
74230;BME280;62589;12.568;99.958;2023-05-28T11:52:35;100356.06;;;36.17;43.23
74230;BME280;62589;12.568;99.958;2023-05-28T11:55:05;100352.84;;;36.19;43.34
74230;BME280;62589;12.568;99.958;2023-05-28T11:57:32;100373.19;;;36.19;43.95
74230;BME280;62589;12.568;99.958;2023-05-28T12:00:17;100378.34;;;36.24;44.33
74230;BME280;62589;12.568;99.958;2023-05-28T12:02:51;100386.75;;;36.21;44.28
74230;BME280;62589;12.568;99.958;2023-05-28T12:05:19;100402.31;;;36.22;44.50
74230;BME280;62589;12.568;99.958;2023-05-28T12:07:50;100395.50;;;36.23;44.55
74230;BME280;62589;12.568;99.958;2023-05-28T12:10:20;100389.91;;;36.23;44.89
74230;BME280;62589;12.568;99.958;2023-05-28T12:12:49;100394.72;;;36.22;45.04
74230;BME280;62589;12.568;99.958;2023-05-28T12:15:17;100388.31;;;36.25;44.97
74230;BME280;62589;12.568;99.958;2023-05-28T12:17:44;100375.94;;;36.23;45.38
74230;BME280;62589;12.568;99.958;2023-05-28T12:20:38;100385.53;;;36.25;45.02
74230;BME280;62589;12.568;99.958;2023-05-28T12:23:08;100376.78;;;36.20;44.92
74230;BME280;62589;12.568;99.958;2023-05-28T12:25:46;100370.81;;;36.17;44.73
74230;BME280;62589;12.568;99.958;2023-05-28T12:28:14;100376.78;;;36.20;44.58
74230;BME280;62589;12.568;99.958;2023-05-28T12:30:42;100364.81;;;36.19;44.71
74230;BME280;62589;12.568;99.958;2023-05-28T12:33:10;100372.41;;;36.19;44.52
74230;BME280;62589;12.568;99.958;2023-05-28T12:35:36;100368.81;;;36.18;44.89
74230;BME280;62589;12.568;99.958;2023-05-28T12:38:03;100372.81;;;36.17;45.09
74230;BME280;62589;12.568;99.958;2023-05-28T12:46:22;100377.69;;;36.13;45.08
74230;BME280;62589;12.568;99.958;2023-05-28T12:48:48;100386.06;;;36.13;45.07
74230;BME280;62589;12.568;99.958;2023-05-28T12:51:16;100397.25;;;36.13;45.39